Time;durP1;ratioP1;P1;durP2;ratioP2;P2;SDS_P1;SDS_P2;PMS_P1;PMS_P2;Temp;Humidity;BMP_temperature;BMP_pressure;BME280_temperature;BME280_humidity;BME280_pressure;Samples;Min_cycle;Max_cycle;Signal;HPM_P1;HPM_P2
2022/05/07 00:01:30;;;;;;;3.57;2.77;;;;;;;;;;5086339;28;20923;-74
2022/05/07 00:03:57;;;;;;;3.43;3.13;;;;;;;;;;5070079;28;20464;-75
2022/05/07 00:06:24;;;;;;;4.47;3.93;;;;;;;;;;5083622;28;20502;-74
2022/05/07 00:08:51;;;;;;;4.50;3.50;;;;;;;;;;5080106;28;20548;-74
2022/05/07 00:11:20;;;;;;;3.10;2.80;;;;;;;;;;5076840;28;20811;-75
2022/05/07 00:13:49;;;;;;;3.57;3.27;;;;;;;;;;5078128;28;20482;-75
2022/05/07 00:19:12;;;;;;;5.00;3.60;;;;;;;;;;5023634;28;20429;-75
2022/05/07 00:21:39;;;;;;;5.63;3.33;;;;;;;;;;5059841;28;20458;-74
2022/05/07 00:24:07;;;;;;;4.23;3.20;;;;;;;;;;5072617;28;20455;-75
2022/05/07 00:26:34;;;;;;;4.20;3.67;;;;;;;;;;5081053;28;20538;-74
2022/05/07 00:29:02;;;;;;;3.83;2.90;;;;;;;;;;5083915;28;20458;-74
2022/05/07 00:31:30;;;;;;;5.63;4.00;;;;;;;;;;5070622;28;20456;-74
2022/05/07 00:33:57;;;;;;;2.77;2.27;;;;;;;;;;5083705;28;20491;-74
2022/05/07 00:36:24;;;;;;;4.40;3.33;;;;;;;;;;5080247;28;20507;-75
2022/05/07 00:38:52;;;;;;;3.90;2.80;;;;;;;;;;5076449;28;20926;-75
2022/05/07 00:41:19;;;;;;;9.73;3.33;;;;;;;;;;5080381;28;20455;-75
2022/05/07 00:43:46;;;;;;;6.33;3.00;;;;;;;;;;5083110;28;20453;-75
2022/05/07 00:46:14;;;;;;;4.30;3.00;;;;;;;;;;5084530;28;20446;-74
2022/05/07 00:48:42;;;;;;;5.70;4.17;;;;;;;;;;5079952;28;20802;-74
2022/05/07 00:53:54;;;;;;;4.10;3.53;;;;;;;;;;5073359;28;20564;-74
2022/05/07 00:56:23;;;;;;;7.20;3.57;;;;;;;;;;5087558;28;20854;-74
2022/05/07 00:58:51;;;;;;;10.23;3.97;;;;;;;;;;5081548;28;20799;-74
2022/05/07 01:01:19;;;;;;;3.70;3.20;;;;;;;;;;5079173;28;20537;-75
2022/05/07 01:03:47;;;;;;;3.57;3.00;;;;;;;;;;5084303;28;20886;-74
2022/05/07 01:06:15;;;;;;;3.33;2.90;;;;;;;;;;5086927;28;20459;-74
2022/05/07 01:08:43;;;;;;;4.93;3.00;;;;;;;;;;5082165;28;20506;-74
2022/05/07 01:11:10;;;;;;;3.77;2.87;;;;;;;;;;5079991;28;20471;-74
2022/05/07 01:13:38;;;;;;;3.30;3.00;;;;;;;;;;5083021;28;20481;-75
2022/05/07 01:16:06;;;;;;;4.13;3.37;;;;;;;;;;5087060;28;20981;-75
2022/05/07 01:18:34;;;;;;;6.07;3.63;;;;;;;;;;5083001;28;20869;-76
2022/05/07 01:21:08;;;;;;;3.93;3.00;;;;;;;;;;5079953;28;20445;-75
2022/05/07 01:23:35;;;;;;;3.73;2.73;;;;;;;;;;5083968;28;21016;-75
2022/05/07 01:26:02;;;;;;;6.50;3.27;;;;;;;;;;5080268;28;20446;-75
2022/05/07 01:28:29;;;;;;;2.87;2.30;;;;;;;;;;5082343;28;20504;-75
2022/05/07 01:30:57;;;;;;;4.70;2.90;;;;;;;;;;5084007;28;20454;-74
2022/05/07 01:33:24;;;;;;;6.27;3.40;;;;;;;;;;5087499;28;20483;-73
2022/05/07 01:35:51;;;;;;;4.60;3.27;;;;;;;;;;5076003;28;20615;-75
2022/05/07 01:38:19;;;;;;;4.37;3.13;;;;;;;;;;5075206;28;21317;-75
2022/05/07 01:40:47;;;;;;;3.53;2.80;;;;;;;;;;5085767;28;20472;-75
2022/05/07 01:43:14;;;;;;;5.57;3.40;;;;;;;;;;5089591;28;20552;-76
2022/05/07 01:45:41;;;;;;;6.17;3.47;;;;;;;;;;5081837;28;20499;-76
2022/05/07 01:48:10;;;;;;;4.90;3.23;;;;;;;;;;5077205;28;20961;-76
2022/05/07 01:50:38;;;;;;;3.13;2.83;;;;;;;;;;5080657;28;20464;-77
2022/05/07 01:53:06;;;;;;;3.70;2.90;;;;;;;;;;5083281;28;20482;-75
2022/05/07 01:55:34;;;;;;;4.20;3.17;;;;;;;;;;5084762;28;20460;-69
2022/05/07 01:58:02;;;;;;;2.87;2.43;;;;;;;;;;5083373;28;20813;-73
2022/05/07 02:00:30;;;;;;;4.43;2.70;;;;;;;;;;5083013;28;20552;-74
2022/05/07 02:02:58;;;;;;;6.07;3.63;;;;;;;;;;5077074;28;20449;-70
2022/05/07 02:05:25;;;;;;;4.03;2.70;;;;;;;;;;5084539;28;21215;-75
2022/05/07 02:07:52;;;;;;;4.97;2.87;;;;;;;;;;5084236;28;20750;-75
2022/05/07 02:10:19;;;;;;;4.40;3.10;;;;;;;;;;5078667;28;20972;-76
2022/05/07 02:12:49;;;;;;;4.13;2.97;;;;;;;;;;5076262;28;20923;-74
2022/05/07 02:15:16;;;;;;;3.77;3.10;;;;;;;;;;5079123;28;20495;-76
2022/05/07 02:17:43;;;;;;;5.77;3.80;;;;;;;;;;5077201;28;20491;-74
2022/05/07 02:20:10;;;;;;;3.70;2.40;;;;;;;;;;5078826;28;20479;-74
2022/05/07 02:22:38;;;;;;;3.37;2.83;;;;;;;;;;5071457;28;20963;-73
2022/05/07 02:25:06;;;;;;;4.30;2.70;;;;;;;;;;5080495;28;20491;-74
2022/05/07 02:27:33;;;;;;;3.90;3.10;;;;;;;;;;5076773;28;20486;-74
2022/05/07 02:30:02;;;;;;;5.80;3.67;;;;;;;;;;5081352;28;21202;-73
2022/05/07 02:32:29;;;;;;;4.53;2.57;;;;;;;;;;5071269;28;20817;-73
2022/05/07 02:34:56;;;;;;;3.73;2.77;;;;;;;;;;5070342;28;20490;-73
2022/05/07 02:37:23;;;;;;;3.90;2.63;;;;;;;;;;5077396;28;20465;-75
2022/05/07 02:39:50;;;;;;;4.63;2.60;;;;;;;;;;5081970;28;20496;-74
2022/05/07 02:45:04;;;;;;;13.20;7.90;;;;;;;;;;5074950;28;20447;-75
2022/05/07 02:47:31;;;;;;;4.13;3.10;;;;;;;;;;5079913;28;20467;-76
2022/05/07 02:49:58;;;;;;;3.50;2.90;;;;;;;;;;5071920;28;20471;-75
2022/05/07 02:52:25;;;;;;;4.63;3.00;;;;;;;;;;5073402;28;20496;-72
2022/05/07 02:54:52;;;;;;;3.50;2.90;;;;;;;;;;5076639;28;20484;-71
2022/05/07 02:57:19;;;;;;;3.93;3.10;;;;;;;;;;5078703;28;20451;-73
2022/05/07 02:59:47;;;;;;;3.70;2.60;;;;;;;;;;5081780;28;20854;-73
2022/05/07 03:02:15;;;;;;;7.40;2.80;;;;;;;;;;5074881;28;20964;-72
2022/05/07 03:04:42;;;;;;;3.40;2.63;;;;;;;;;;5073435;28;20976;-73
2022/05/07 03:07:10;;;;;;;3.50;2.57;;;;;;;;;;5077519;28;20527;-73
2022/05/07 03:09:37;;;;;;;3.57;2.50;;;;;;;;;;5086864;28;20550;-72
2022/05/07 03:12:04;;;;;;;3.50;2.40;;;;;;;;;;5086606;28;20559;-73
2022/05/07 03:14:32;;;;;;;3.73;2.87;;;;;;;;;;5074006;28;20484;-73
2022/05/07 03:16:59;;;;;;;5.27;3.07;;;;;;;;;;5075075;28;20456;-73
2022/05/07 03:19:28;;;;;;;4.27;3.03;;;;;;;;;;5076345;28;20536;-73
2022/05/07 03:21:55;;;;;;;4.93;2.47;;;;;;;;;;5087311;28;20491;-73
2022/05/07 03:24:23;;;;;;;4.60;2.33;;;;;;;;;;5072860;28;20983;-74
2022/05/07 03:26:50;;;;;;;3.63;3.27;;;;;;;;;;5069531;28;20491;-74
2022/05/07 03:29:17;;;;;;;3.03;2.73;;;;;;;;;;5082022;28;20467;-76
2022/05/07 03:31:48;;;;;;;5.77;3.80;;;;;;;;;;5068226;28;20460;-76
2022/05/07 03:34:16;;;;;;;3.60;2.67;;;;;;;;;;5084124;28;20489;-75
2022/05/07 03:36:45;;;;;;;4.47;2.57;;;;;;;;;;5081600;28;20575;-75
2022/05/07 03:39:12;;;;;;;3.50;2.37;;;;;;;;;;5074295;28;20535;-74
2022/05/07 03:41:40;;;;;;;5.23;2.80;;;;;;;;;;5074412;28;20839;-75
2022/05/07 03:44:07;;;;;;;4.00;2.80;;;;;;;;;;5078204;28;20836;-75
2022/05/07 03:46:34;;;;;;;2.77;2.20;;;;;;;;;;5081752;28;20575;-76
2022/05/07 03:49:01;;;;;;;4.00;2.60;;;;;;;;;;5079601;28;20462;-75
2022/05/07 03:51:28;;;;;;;3.90;2.30;;;;;;;;;;5074571;28;20473;-79
2022/05/07 03:53:56;;;;;;;6.40;3.50;;;;;;;;;;5075095;28;20838;-73
2022/05/07 03:56:23;;;;;;;4.37;2.20;;;;;;;;;;5070464;28;20461;-76
2022/05/07 03:58:50;;;;;;;4.20;2.90;;;;;;;;;;5073158;28;20464;-75
2022/05/07 04:01:18;;;;;;;5.07;2.80;;;;;;;;;;5071424;28;20954;-77
2022/05/07 04:03:47;;;;;;;3.23;2.33;;;;;;;;;;5078044;28;20510;-75
2022/05/07 04:06:14;;;;;;;3.57;2.63;;;;;;;;;;5081470;28;20455;-77
2022/05/07 04:08:41;;;;;;;4.23;2.97;;;;;;;;;;5072747;28;20788;-76
2022/05/07 04:11:09;;;;;;;3.10;2.13;;;;;;;;;;5071214;28;20462;-76
2022/05/07 04:13:36;;;;;;;4.13;2.93;;;;;;;;;;5081819;28;20454;-76
2022/05/07 04:16:04;;;;;;;3.10;2.37;;;;;;;;;;5071009;28;20469;-76
2022/05/07 04:18:31;;;;;;;2.90;2.53;;;;;;;;;;5076003;28;20456;-77
2022/05/07 04:20:59;;;;;;;3.70;2.80;;;;;;;;;;5080145;28;20447;-76
2022/05/07 04:23:26;;;;;;;3.30;2.70;;;;;;;;;;5089669;28;20467;-75
2022/05/07 04:25:53;;;;;;;3.60;2.33;;;;;;;;;;5082835;28;20694;-75
2022/05/07 04:28:21;;;;;;;2.70;2.37;;;;;;;;;;5088983;28;20447;-75
2022/05/07 04:30:49;;;;;;;3.70;2.90;;;;;;;;;;5081645;28;20442;-74
2022/05/07 04:33:16;;;;;;;5.20;2.33;;;;;;;;;;5091839;28;20450;-75
2022/05/07 04:35:44;;;;;;;3.23;2.80;;;;;;;;;;5079690;28;20490;-74
2022/05/07 04:38:11;;;;;;;5.20;3.07;;;;;;;;;;5085618;28;20450;-74
2022/05/07 04:40:38;;;;;;;4.20;3.10;;;;;;;;;;5079664;28;20942;-75
2022/05/07 04:43:06;;;;;;;4.47;3.17;;;;;;;;;;5085139;28;20533;-74
2022/05/07 04:45:34;;;;;;;5.33;3.00;;;;;;;;;;5080521;28;20472;-74
2022/05/07 04:48:02;;;;;;;4.30;3.30;;;;;;;;;;5079718;28;20444;-73
2022/05/07 04:50:29;;;;;;;5.77;2.60;;;;;;;;;;5074192;28;20534;-74
2022/05/07 04:52:57;;;;;;;3.23;2.30;;;;;;;;;;5072972;28;20978;-74
2022/05/07 04:55:24;;;;;;;4.43;2.27;;;;;;;;;;5080469;28;20525;-75
2022/05/07 04:57:51;;;;;;;3.50;2.50;;;;;;;;;;5080442;28;20516;-74
2022/05/07 05:00:18;;;;;;;5.60;2.60;;;;;;;;;;5086590;28;20490;-74
2022/05/07 05:02:47;;;;;;;3.43;3.03;;;;;;;;;;5086799;28;20451;-74
2022/05/07 05:05:15;;;;;;;3.70;2.53;;;;;;;;;;5081817;28;20963;-75
2022/05/07 05:07:44;;;;;;;4.50;3.60;;;;;;;;;;5078845;28;20995;-76
2022/05/07 05:10:11;;;;;;;2.70;2.37;;;;;;;;;;5085878;28;20531;-76
2022/05/07 05:12:39;;;;;;;4.97;3.67;;;;;;;;;;5086658;28;20471;-76
2022/05/07 05:15:08;;;;;;;3.87;2.90;;;;;;;;;;5082683;28;20530;-76
2022/05/07 05:17:37;;;;;;;3.50;2.90;;;;;;;;;;5080911;28;20509;-76
2022/05/07 05:20:06;;;;;;;6.07;3.17;;;;;;;;;;5082619;28;20923;-76
2022/05/07 05:22:33;;;;;;;5.37;3.23;;;;;;;;;;5080820;28;20458;-74
2022/05/07 05:25:01;;;;;;;2.70;2.40;;;;;;;;;;5081020;28;20449;-75
2022/05/07 05:27:28;;;;;;;4.40;3.40;;;;;;;;;;5085189;28;20544;-75
2022/05/07 05:29:55;;;;;;;3.30;2.40;;;;;;;;;;5082326;28;20544;-75
2022/05/07 05:32:22;;;;;;;3.30;2.60;;;;;;;;;;5089466;28;20464;-75
2022/05/07 05:34:52;;;;;;;6.07;3.20;;;;;;;;;;5082759;28;21009;-75
2022/05/07 05:37:20;;;;;;;3.00;2.70;;;;;;;;;;5080105;28;20445;-75
2022/05/07 05:39:48;;;;;;;3.80;3.10;;;;;;;;;;5083739;28;20537;-75
2022/05/07 05:42:15;;;;;;;3.63;2.93;;;;;;;;;;5080012;28;20450;-75
2022/05/07 05:44:43;;;;;;;3.80;2.90;;;;;;;;;;5078611;28;20826;-75
2022/05/07 05:47:10;;;;;;;3.80;3.10;;;;;;;;;;5080340;28;20455;-76
2022/05/07 05:49:38;;;;;;;4.63;3.27;;;;;;;;;;5084741;28;20453;-75
2022/05/07 05:52:06;;;;;;;5.60;3.97;;;;;;;;;;5087293;28;20477;-74
2022/05/07 05:54:34;;;;;;;3.53;3.10;;;;;;;;;;5075988;28;20909;-73
2022/05/07 05:57:02;;;;;;;3.53;3.20;;;;;;;;;;5078059;28;20508;-74
2022/05/07 05:59:29;;;;;;;4.10;3.10;;;;;;;;;;5085168;28;20456;-74
2022/05/07 06:01:56;;;;;;;4.37;3.00;;;;;;;;;;5075549;28;20457;-74
2022/05/07 06:04:23;;;;;;;4.93;3.63;;;18.60;91.00;;;;;;5074772;28;20449;-74
2022/05/07 06:06:50;;;;;;;4.67;3.10;;;11.20;39.50;;;;;;5083991;28;20531;-74
2022/05/07 06:09:17;;;;;;;4.17;2.83;;;11.20;1.00;;;;;;5077724;28;20533;-73
2022/05/07 06:11:45;;;;;;;3.90;2.80;;;11.30;1.00;;;;;;5088224;28;20445;-73
2022/05/07 06:14:12;;;;;;;3.67;3.37;;;11.40;1.00;;;;;;5078178;28;20449;-73
2022/05/07 06:16:39;;;;;;;3.07;2.77;;;11.50;99.90;;;;;;5084700;28;20442;-74
2022/05/07 06:19:07;;;;;;;4.43;3.63;;;11.60;99.90;;;;;;5076066;28;20451;-73
2022/05/07 06:21:34;;;;;;;5.60;3.80;;;11.70;1.00;;;;;;5089649;28;20942;-74
2022/05/07 06:27:28;;;;;;;4.60;3.67;;;11.80;1.00;;;;;;5089027;28;20778;-74
2022/05/07 06:29:34;;;;;;;4.33;3.60;;;;;;;;;;5088446;28;20445;-74
2022/05/07 06:32:01;;;;;;;6.90;3.60;;;;;;;;;;5082755;28;20484;-74
2022/05/07 06:34:28;;;;;;;5.83;4.10;;;;;;;;;;5088903;28;20512;-74
2022/05/07 06:36:57;;;;;;;8.20;4.33;;;;;;;;;;5077248;28;20460;-74
2022/05/07 06:39:24;;;;;;;6.87;4.30;;;;;;;;;;5086485;28;20444;-74
2022/05/07 06:41:53;;;;;;;6.40;4.00;;;;;;;;;;5080936;28;20628;-74
2022/05/07 06:44:20;;;;;;;5.13;4.27;;;;;;;;;;5073788;28;20484;-75
2022/05/07 06:46:49;;;;;;;4.60;3.60;;;;;;;;;;5073660;28;20450;-74
2022/05/07 06:49:18;;;;;;;5.07;3.80;;;;;;;;;;5082242;28;20796;-73
2022/05/07 06:51:45;;;;;;;3.80;3.47;;;;;;;;;;5078974;28;20527;-75
2022/05/07 06:54:12;;;;;;;6.50;4.70;;;;;;;;;;5072307;28;21022;-74
2022/05/07 06:56:39;;;;;;;6.13;4.10;;;;;;;;;;5081939;28;20481;-74
2022/05/07 06:59:09;;;;;;;5.33;4.30;;;;;;;;;;5080884;28;20450;-74
2022/05/07 07:01:37;;;;;;;6.27;4.10;;;;;;;;;;5084736;28;20442;-73
2022/05/07 07:04:04;;;;;;;5.53;4.53;;;;;;;;;;5081051;28;20500;-75
2022/05/07 07:06:31;;;;;;;5.97;4.40;;;;;;;;;;5080313;28;20465;-74
2022/05/07 07:08:58;;;;;;;7.33;5.50;;;;;;;;;;5083217;28;20443;-74
2022/05/07 07:11:25;;;;;;;5.00;4.47;;;;;;;;;;5078329;28;20484;-74
2022/05/07 07:13:53;;;;;;;5.40;4.43;;;;;;;;;;5081297;28;20458;-74
2022/05/07 07:16:21;;;;;;;6.60;4.37;;;;;;;;;;5077402;28;20585;-75
2022/05/07 07:18:49;;;;;;;7.23;4.73;;;;;;;;;;5071602;28;20453;-74
2022/05/07 07:21:16;;;;;;;7.30;4.47;;;;;;;;;;5071787;28;21082;-75
2022/05/07 07:23:43;;;;;;;6.07;4.70;;;;;;;;;;5075645;28;20449;-75
2022/05/07 07:26:10;;;;;;;6.20;4.83;;;;;;;;;;5078930;28;20454;-77
2022/05/07 07:28:37;;;;;;;8.83;6.40;;;;;;;;;;5081954;28;20858;-73
2022/05/07 07:31:05;;;;;;;6.90;5.10;;;;;;;;;;5077251;28;20445;-74
2022/05/07 07:33:33;;;;;;;7.63;4.67;;;;;;;;;;5085121;28;20448;-73
2022/05/07 07:36:01;;;;;;;7.67;5.43;;;;;;;;;;5084033;28;20567;-74
2022/05/07 07:38:29;;;;;;;8.77;6.07;;;;;;;;;;5086566;28;20527;-74
2022/05/07 07:40:56;;;;;;;7.27;5.50;;;;;;;;;;5070568;28;20805;-74
2022/05/07 07:43:23;;;;;;;6.67;4.87;;;;;;;;;;5074376;28;20452;-73
2022/05/07 07:48:39;;;;;;;6.43;4.57;;;;;;;;;;5077343;28;20484;-74
2022/05/07 07:51:06;;;;;;;7.57;5.20;;;;;;;;;;5080720;28;20989;-73
2022/05/07 07:53:34;;;;;;;7.63;4.00;;;;;;;;;;5072935;28;20835;-74
2022/05/07 07:56:01;;;;;;;7.93;4.97;;;;;;;;;;5082306;28;20218;-74
2022/05/07 07:58:28;;;;;;;6.80;4.90;;;;;;;;;;5077628;28;20536;-75
2022/05/07 08:00:55;;;;;;;6.97;4.20;;;;;;;;;;5084597;28;20456;-73
2022/05/07 08:03:23;;;;;;;5.90;4.53;;;;;;;;;;5080806;28;20569;-73
2022/05/07 08:05:52;;;;;;;5.03;4.20;;;;;;;;;;5089736;28;20948;-73
2022/05/07 08:13:53;;;;;;;9.53;5.30;;;;;;;;;;5081887;28;20422;-72
2022/05/07 08:16:20;;;;;;;8.13;5.20;;;;;;;;;;5077400;28;20505;-73
2022/05/07 08:18:49;;;;;;;8.10;6.10;;;;;;;;;;5076745;28;20452;-73
2022/05/07 08:21:18;;;;;;;12.10;5.30;;;;;;;;;;5079541;28;20452;-73
2022/05/07 08:23:45;;;;;;;5.67;5.03;;;;;;;;;;5072937;28;20540;-73
2022/05/07 08:26:12;;;;;;;6.60;4.70;;;;;;;;;;5083564;28;20453;-73
2022/05/07 08:28:40;;;;;;;6.73;5.60;;;;;;;;;;5071360;28;20536;-73
2022/05/07 08:31:08;;;;;;;7.10;6.33;;;;;;;;;;5080791;28;20473;-73
2022/05/07 08:33:36;;;;;;;7.83;5.27;;;;;;;;;;5071008;28;20446;-73
2022/05/07 08:36:03;;;;;;;7.67;6.60;;;;;;;;;;5082111;28;20528;-73
2022/05/07 08:38:32;;;;;;;7.63;5.90;;;;;;;;;;5070551;28;20540;-73
2022/05/07 08:41:01;;;;;;;9.37;5.73;;;;;;;;;;5074546;28;20528;-73
2022/05/07 08:43:28;;;;;;;7.53;5.90;;;;;;;;;;5073012;28;20454;-74
2022/05/07 08:45:55;;;;;;;6.50;5.60;;;;;;;;;;5080235;28;20586;-74
2022/05/07 08:48:22;;;;;;;7.27;5.43;;;;;;;;;;5076471;28;20459;-74
2022/05/07 08:50:49;;;;;;;10.80;6.03;;;;;;;;;;5075156;28;20452;-73
2022/05/07 08:53:17;;;;;;;6.73;6.03;;;;;;;;;;5071057;28;20476;-73
2022/05/07 08:55:45;;;;;;;8.60;7.07;;;;;;;;;;5078919;28;20491;-73
2022/05/07 08:58:12;;;;;;;7.87;6.33;;;;;;;;;;5076307;28;20444;-73
2022/05/07 09:00:39;;;;;;;9.00;6.73;;;;;;;;;;5079115;28;20465;-73
2022/05/07 09:03:07;;;;;;;8.97;6.43;;;;;;;;;;5074516;28;20532;-73
2022/05/07 09:05:36;;;;;;;11.03;6.20;;;;;;;;;;5087399;28;20534;-73
2022/05/07 09:08:04;;;;;;;10.33;6.37;;;;;;;;;;5083764;28;20780;-74
2022/05/07 09:10:32;;;;;;;6.93;5.67;;;;;;;;;;5078441;28;20452;-74
2022/05/07 09:13:12;;;;;;;8.03;6.90;;;;;;;;;;5085470;28;20512;-73
2022/05/07 09:15:49;;;;;;;7.00;6.03;;;;;;;;;;5078564;28;20469;-74
2022/05/07 09:18:18;;;;;;;12.03;7.20;;;;;;;;;;5085141;28;20444;-73
2022/05/07 09:20:45;;;;;;;10.27;6.97;;;;;;;;;;5084887;28;20437;-73
2022/05/07 09:23:12;;;;;;;7.47;6.07;;;;;;;;;;5073066;28;20548;-73
2022/05/07 09:25:46;;;;;;;6.50;5.90;;;;;;;;;;5082339;28;20464;-74
2022/05/07 09:28:14;;;;;;;7.80;5.60;;;;;;;;;;5083277;28;20450;-74
2022/05/07 09:30:44;;;;;;;5.33;4.83;;;;;;;;;;5083408;28;20452;-74
2022/05/07 09:33:11;;;;;;;6.40;4.40;;;;;;;;;;5082170;28;20445;-74
2022/05/07 09:35:50;;;;;;;5.53;4.00;;;;;;;;;;5085788;28;20477;-74
2022/05/07 09:38:17;;;;;;;5.47;3.77;;;;;;;;;;5076113;28;20528;-74
2022/05/07 09:40:45;;;;;;;5.90;4.53;;;;;;;;;;5079158;28;20455;-73
2022/05/07 09:43:13;;;;;;;4.70;3.27;;;;;;;;;;5076890;28;20533;-74
2022/05/07 09:45:42;;;;;;;3.80;3.43;;;;;;;;;;5081913;28;20445;-73
2022/05/07 09:48:12;;;;;;;2.90;2.70;;;;;;;;;;5076858;28;20842;-74
2022/05/07 09:50:45;;;;;;;3.67;2.87;;;;;;;;;;5087006;28;20476;-73
2022/05/07 09:58:43;;;;;;;3.67;2.40;;;;;;;;;;5077590;28;20425;-73
2022/05/07 10:01:21;;;;;;;2.53;2.33;;;;;;;;;;5085439;28;20449;-74
2022/05/07 10:03:51;;;;;;;1.20;1.10;;;;;;;;;;5074221;28;20452;-74
2022/05/07 10:06:25;;;;;;;6.50;2.00;;;;;;;;;;5085587;28;20446;-73
2022/05/07 10:08:59;;;;;;;2.70;1.80;;;;;;;;;;5083260;28;20539;-73
2022/05/07 10:11:26;;;;;;;1.80;1.70;;;;;;;;;;5076977;28;20495;-74
2022/05/07 10:13:54;;;;;;;1.33;1.23;;;;;;;;;;5071287;28;20537;-73
2022/05/07 10:16:23;;;;;;;2.27;1.50;;;;;;;;;;5075653;28;20495;-74
2022/05/07 10:18:50;;;;;;;1.57;1.23;;;;;;;;;;5079159;28;20454;-72
2022/05/07 10:21:18;;;;;;;1.90;1.40;;;;;;;;;;5087129;28;21009;-75
2022/05/07 10:23:53;;;;;;;1.73;1.63;;;;;;;;;;5078514;28;20457;-73
2022/05/07 10:26:21;;;;;;;1.50;1.40;;;;;;;;;;5076402;28;20456;-74
2022/05/07 10:28:48;;;;;;;1.83;1.70;;;;;;;;;;5078270;28;20473;-73
2022/05/07 10:31:19;;;;;;;1.90;1.37;;;;;;;;;;5076423;28;20942;-73
2022/05/07 10:33:48;;;;;;;1.97;1.77;;;;;;;;;;5074123;28;20536;-73
2022/05/07 10:36:15;;;;;;;1.43;0.87;;;;;;;;;;5078003;28;20981;-73
2022/05/07 10:38:45;;;;;;;1.70;1.60;;;;;;;;;;5073411;28;20542;-73
2022/05/07 10:41:26;;;;;;;3.90;1.60;;;;;;;;;;5080366;28;20825;-73
2022/05/07 10:44:06;;;;;;;1.73;1.30;;;;;;;;;;5073885;28;20449;-73
2022/05/07 10:46:42;;;;;;;2.80;1.33;;;;;;;;;;5073249;28;20472;-73
2022/05/07 10:49:11;;;;;;;2.03;1.53;;;;;;;;;;5078849;28;20824;-74
2022/05/07 10:51:38;;;;;;;2.27;2.07;;;;;;;;;;5074876;28;20484;-73
2022/05/07 10:54:19;;;;;;;1.60;1.50;;;;;;;;;;5090941;28;20531;-73
2022/05/07 10:56:50;;;;;;;2.17;1.90;;;;;;;;;;5087481;28;20465;-73
2022/05/07 10:59:17;;;;;;;3.37;1.87;;;;;;;;;;5079677;28;20453;-73
2022/05/07 11:01:45;;;;;;;2.30;2.10;;;;;;;;;;5072903;28;20501;-74
2022/05/07 11:04:17;;;;;;;2.60;2.40;;;;;;;;;;5090835;28;20484;-74
2022/05/07 11:06:48;;;;;;;3.00;2.00;;;;;;;;;;5084535;28;20941;-74
2022/05/07 11:09:16;;;;;;;5.37;1.87;;;;;;;;;;5077609;28;20456;-74
2022/05/07 11:11:45;;;;;;;1.83;1.70;;;;;;;;;;5073201;28;20540;-73
2022/05/07 11:14:20;;;;;;;3.83;2.03;;;;;;;;;;5082982;28;20449;-73
2022/05/07 11:16:47;;;;;;;2.07;1.83;;;;;;;;;;5077699;28;20465;-74
2022/05/07 11:19:25;;;;;;;3.20;2.20;;;;;;;;;;5084181;28;20495;-74
2022/05/07 11:21:53;;;;;;;2.00;1.90;;;;;;;;;;5081129;28;21033;-74
2022/05/07 11:24:20;;;;;;;2.10;1.47;;;;;;;;;;5082510;28;20441;-74
2022/05/07 11:26:50;;;;;;;1.60;1.50;;;;;;;;;;5084374;28;20441;-74
2022/05/07 11:29:17;;;;;;;1.47;1.37;;;;;;;;;;5072671;28;20449;-74
2022/05/07 11:31:44;;;;;;;2.00;1.73;;;;;;;;;;5082153;28;20455;-74
2022/05/07 11:34:13;;;;;;;2.77;2.17;;;;;;;;;;5084177;28;20446;-74
2022/05/07 11:36:42;;;;;;;2.63;1.80;;;;;;;;;;5084770;28;20477;-73
2022/05/07 11:39:09;;;;;;;1.60;1.50;;;;;;;;;;5077435;28;20528;-74
2022/05/07 11:41:37;;;;;;;1.50;1.40;;;;;;;;;;5081469;28;20456;-72
2022/05/07 11:46:53;;;;;;;1.60;1.43;;;;;;;;;;5084683;28;20428;-73
2022/05/07 11:49:30;;;;;;;2.20;1.50;;;;;;;;;;5077146;28;20447;-73
2022/05/07 11:52:10;;;;;;;2.10;1.60;;;;;;;;;;5082532;28;20465;-73
2022/05/07 11:54:37;;;;;;;2.43;1.43;;;;;;;;;;5080288;28;20436;-73
2022/05/07 11:57:04;;;;;;;2.10;1.73;;;;;;;;;;5085099;28;20563;-74
2022/05/07 11:59:31;;;;;;;1.60;1.50;;;;;;;;;;5077720;28;20481;-74
2022/05/07 12:01:58;;;;;;;2.40;1.80;;;;;;;;;;5087187;28;20436;-73
2022/05/07 12:04:32;;;;;;;5.80;1.50;;;;;;;;;;5076223;28;20457;-73
2022/05/07 12:06:59;;;;;;;1.80;1.70;;;;;;;;;;5072903;28;20450;-74
2022/05/07 12:09:30;;;;;;;1.60;1.10;;;;;;;;;;5072484;28;20446;-73
2022/05/07 12:11:57;;;;;;;1.70;1.30;;;;;;;;;;5080084;28;20452;-73
2022/05/07 12:14:25;;;;;;;2.17;1.97;;;;;;;;;;5075890;28;20450;-73
2022/05/07 12:19:36;;;;;;;1.97;1.70;;;;;;;;;;5082213;28;20479;-73
2022/05/07 12:30:19;;;;;;;5.00;1.40;;;;;;;;;;5079982;28;20425;-73
2022/05/07 12:32:48;;;;;;;1.73;1.40;;;;;;;;;;5081578;28;20461;-73
2022/05/07 12:35:15;;;;;;;2.23;1.33;;;;;;;;;;5075623;28;20476;-74
2022/05/07 12:37:43;;;;;;;1.57;1.33;;;;;;;;;;5069621;28;20497;-74
2022/05/07 12:40:12;;;;;;;3.23;1.30;;;;;;;;;;5084950;28;20451;-74
2022/05/07 12:42:39;;;;;;;2.40;1.67;;;;;;;;;;5081179;28;20535;-73
2022/05/07 12:45:08;;;;;;;2.03;1.70;;;;;;;;;;5083568;28;20448;-74
2022/05/07 12:47:35;;;;;;;1.50;1.40;;;;;;;;;;5074844;28;20786;-73
2022/05/07 12:50:02;;;;;;;1.43;1.30;;;;;;;;;;5080315;28;20887;-74
2022/05/07 12:52:30;;;;;;;1.90;1.40;;;;;;;;;;5082773;28;20655;-74
2022/05/07 12:54:57;;;;;;;2.00;1.27;;;;;;;;;;5078833;28;20452;-74
2022/05/07 12:57:25;;;;;;;2.03;1.83;;;;;;;;;;5080563;28;20509;-74
2022/05/07 12:59:53;;;;;;;1.50;1.40;;;;;;;;;;5073520;28;20629;-74
2022/05/07 13:02:20;;;;;;;2.30;1.90;;;;;;;;;;5075827;28;20468;-74
2022/05/07 13:04:47;;;;;;;1.70;1.40;;;;;;;;;;5089522;28;20544;-74
2022/05/07 13:07:14;;;;;;;1.57;1.47;;;;;;;;;;5078485;28;20464;-74
2022/05/07 13:09:41;;;;;;;1.73;1.63;;;;;;;;;;5087522;28;20450;-74
2022/05/07 13:12:11;;;;;;;1.60;1.50;;;;;;;;;;5081852;28;20452;-74
2022/05/07 13:14:40;;;;;;;2.50;1.80;;;;;;;;;;5080409;28;20494;-74
2022/05/07 13:17:07;;;;;;;2.10;1.30;;;;;;;;;;5085265;28;20482;-74
2022/05/07 13:19:34;;;;;;;2.00;1.50;;;;;;;;;;5080295;28;20456;-74
2022/05/07 13:22:01;;;;;;;2.00;1.80;;;;;;;;;;5075118;28;20755;-75
2022/05/07 13:24:29;;;;;;;1.50;1.37;;;;;;;;;;5089536;28;20823;-74
2022/05/07 13:26:56;;;;;;;1.30;1.20;;;;;;;;;;5086014;28;20461;-74
2022/05/07 13:29:23;;;;;;;2.40;1.70;;;;;;;;;;5079086;28;20544;-75
2022/05/07 13:31:52;;;;;;;1.43;1.30;;;;;;;;;;5080326;28;20460;-74
2022/05/07 13:34:19;;;;;;;1.43;1.30;;;;;;;;;;5090589;28;20445;-74
2022/05/07 13:36:46;;;;;;;1.40;1.30;;;;;;;;;;5079446;28;20513;-74
2022/05/07 13:39:13;;;;;;;1.50;1.30;;;;;;;;;;5085806;28;20464;-74
2022/05/07 13:41:40;;;;;;;1.80;1.70;;;;;;;;;;5074052;28;20442;-73
2022/05/07 13:44:10;;;;;;;1.93;1.37;;;;;;;;;;5090071;28;20467;-74
2022/05/07 13:46:38;;;;;;;1.83;1.30;;;;;;;;;;5077676;28;20499;-73
2022/05/07 13:49:06;;;;;;;1.40;1.30;;;;;;;;;;5084599;28;20537;-74
2022/05/07 13:51:33;;;;;;;1.20;1.10;;;;;;;;;;5075495;28;20644;-73
2022/05/07 13:54:00;;;;;;;3.03;1.63;;;;;;;;;;5077422;28;20464;-74
2022/05/07 13:56:28;;;;;;;1.33;1.23;;;;;;;;;;5084030;28;20937;-73
2022/05/07 13:58:55;;;;;;;1.77;1.37;;;;;;;;;;5077155;28;20536;-74
2022/05/07 14:01:23;;;;;;;1.43;1.33;;;;;;;;;;5086468;28;20571;-74
2022/05/07 14:03:50;;;;;;;1.43;1.33;;;;;;;;;;5082471;28;20448;-73
2022/05/07 14:06:19;;;;;;;2.83;1.80;;;;;;;;;;5089110;28;20476;-74
2022/05/07 14:08:47;;;;;;;1.53;1.37;;;;;;;;;;5079068;28;20456;-75
2022/05/07 14:11:14;;;;;;;2.70;1.40;;;;;;;;;;5087593;28;20454;-74
2022/05/07 14:13:42;;;;;;;2.00;1.70;;;;;;;;;;5079281;28;20656;-74
2022/05/07 14:16:09;;;;;;;1.70;1.43;;;;;;;;;;5077118;28;20442;-74
2022/05/07 14:18:36;;;;;;;1.40;1.30;;;;;;;;;;5077150;28;20561;-72
2022/05/07 14:21:04;;;;;;;2.40;1.70;;;;;;;;;;5076851;28;20528;-73
2022/05/07 14:23:32;;;;;;;1.43;1.33;;;;;;;;;;5080270;28;20456;-74
2022/05/07 14:26:01;;;;;;;1.60;1.50;;;;;;;;;;5079156;28;20456;-75
2022/05/07 14:28:28;;;;;;;1.50;1.40;;;;;;;;;;5087556;28;20749;-75
2022/05/07 14:30:57;;;;;;;2.00;1.87;;;;;;;;;;5078989;28;20470;-74
2022/05/07 14:33:25;;;;;;;1.90;1.47;;;;;;;;;;5074393;28;20455;-74
2022/05/07 14:35:52;;;;;;;1.60;1.50;;;;;;;;;;5081392;28;20724;-78
2022/05/07 14:38:20;;;;;;;1.80;1.70;;;;;;;;;;5080715;28;20473;-75
2022/05/07 14:40:49;;;;;;;1.70;1.60;;;;;;;;;;5078536;28;20441;-78
2022/05/07 14:43:16;;;;;;;1.67;1.57;;;;;;;;;;5075021;28;20445;-79
2022/05/07 14:45:44;;;;;;;1.50;1.40;;;;;;;;;;5075529;28;20277;-79
2022/05/07 14:48:11;;;;;;;2.40;2.10;;;;;;;;;;5081515;28;20198;-78
2022/05/07 14:50:38;;;;;;;1.83;1.63;;;;;;;;;;5085261;28;20266;-79
2022/05/07 14:53:06;;;;;;;2.50;1.70;;;;;;;;;;5072743;28;20272;-76
2022/05/07 14:55:33;;;;;;;2.37;1.83;;;;;;;;;;5077753;28;20187;-75
2022/05/07 14:58:02;;;;;;;2.00;1.70;;;;;;;;;;5087033;28;20468;-75
2022/05/07 15:00:30;;;;;;;1.90;1.70;;;;;;;;;;5082888;28;20452;-78
2022/05/07 15:02:57;;;;;;;2.00;1.73;;;;;;;;;;5076166;28;20535;-79
2022/05/07 15:05:24;;;;;;;1.67;1.47;;;;;;;;;;5074879;28;20215;-79
2022/05/07 15:07:51;;;;;;;2.43;1.50;;;;;;;;;;5069970;28;20206;-76
2022/05/07 15:10:36;;;;;;;2.50;2.30;;;;;;;;;;5076528;28;20665;-77
2022/05/07 15:13:04;;;;;;;2.37;1.87;;;;;;;;;;5076858;28;20448;-77
2022/05/07 15:15:32;;;;;;;2.93;2.73;;;;;;;;;;5076619;28;20495;-77
2022/05/07 15:17:59;;;;;;;2.77;2.40;;;;;;;;;;5074655;28;20491;-79
2022/05/07 15:20:26;;;;;;;2.03;1.90;;;;;;;;;;5072219;28;20318;-78
2022/05/07 15:22:53;;;;;;;2.20;2.03;;;;;;;;;;5068169;28;20201;-77
2022/05/07 15:25:20;;;;;;;2.57;2.37;;;;;;;;;;5080452;28;20202;-78